Relatórios de METAR próximas

 

LPAR - Alverca, Portugal
Distance from station: SO 47km
Actualizado: 21/07/2016 09:00
NÃO Actual
Céu Limpo
Céu Limpo
 Vento de N
Vento: N 15 km/h
Temperatura: 22°C
Ponto de Orvalho: 15°C
Humidade: 65%
Barómetro: 1018 hPa
Resumo: Céu Limpo
Visibilidade: greater than 10 km
2016/07/21 08:00 LPAR 210800Z 01008KT CAVOK 22/15 Q1018
LPPT - Lisbon/Portela, Portugal
Distance from station: SO 61km
Actualizado: 24/03/2017 17:30
Chuva fraca, Muito Nublado
Chuva fraca, Muito Nublado
 Vento de SO
Vento: SO 11 km/h
Temperatura: 9°C
Índice Frio: 7°C
Ponto de Orvalho: 6°C
Humidade: 82%
Barómetro: 1012 hPa
Resumo: Chuva fraca
Nuvens: Muito Nublado
Visibilidade: 10 km
Cloud details: Few Clouds 610 m
Few Clouds 762 m
Muito Nublado 1158 m
2017/03/24 17:30 LPPT 241730Z 23006KT 9999 -RA FEW020 FEW025CB BKN038 09/06 Q1012 RETS
 
LPMT - Montijo (por-Afb, Portugal
Distance from station: SO 62km
Actualizado: 25/07/2016 01:00
NÃO Actual
Céu Limpo
Céu Limpo
 Vento de varies
Vento: varies 2 km/h
Temperatura: 22°C
Ponto de Orvalho: 15°C
Humidade: 65%
Barómetro: 1015 hPa
Resumo: Céu Limpo
Visibilidade: greater than 10 km
2016/07/25 00:00 LPMT 250000Z VRB01KT CAVOK 22/15 Q1015
LPST - Sintra/Granja (a, Portugal
Distance from station: OSO 72km
Actualizado: 21/07/2016 09:00
NÃO Actual
Few Clouds
Few Clouds
 Vento de NNO
Vento: NNO 17 km/h
Temperatura: 19°C
Ponto de Orvalho: 16°C
Humidade: 83%
Barómetro: 1019 hPa
Nuvens: Few Clouds
Visibilidade: 10 km
Cloud details: Few Clouds 366 m
2016/07/21 08:00 LPST 210800Z 33009KT 300V010 9999 FEW012 19/16 Q1019
 
LPMR - Monte Real(Por-A, Portugal
Distance from station: NNO 80km
Actualizado: 25/07/2016 01:00
NÃO Actual
Céu Limpo
Céu Limpo
 Vento de ONO
Vento: ONO 7 km/h
Temperatura: 17°C
Ponto de Orvalho: 15°C
Humidade: 88%
Barómetro: 1017 hPa
Resumo: Céu Limpo
Visibilidade: greater than 10 km
2016/07/25 00:00 LPMR 250000Z 29004KT CAVOK 17/15 Q1017
LPBJ - Beja (por/Ger-Af, Portugal
Distance from station: SSE 139km
Actualizado: 24/03/2017 17:00
Muito Nublado
Muito Nublado
 Vento de O
Vento: O 17 km/h
Temperatura: 11°C
Ponto de Orvalho: 4°C
Humidade: 62%
Barómetro: 1013 hPa
Nuvens: Muito Nublado
Visibilidade: 10 km
Cloud details: Few Clouds 610 m
Muito Nublado 1372 m
2017/03/24 17:00 LPBJ 241700Z 27009KT 9999 FEW020 BKN045 11/04 Q1013